Terminal Aerodrome Forecast
Issued by NWS Upton, NY

Home | Current Version | Previous Version | Text Only | Print | Product List | Glossary On
Versions: 1 2 3 4 5 6 7 8 9 10 11 12 13 14 15 16 17 18 19 20 21 22 23 24 25 26 27
000
FTUS41 KOKX 230500
TAFBDR
TAF
KBDR 230532Z 2306/2406 29007KT P6SM SCT040
     FM230900 30009G18KT P6SM BKN035
     FM231400 31016G25KT P6SM SCT040
     FM231800 32021G32KT P6SM SCT050
     FM240100 32014G22KT P6SM SKC=

USA.gov is the U.S. government's official web portal to all federal, state and local government web resources and services.